createdAt,value
2018-05-13T00:00:27.319Z,19.62
2018-05-13T00:00:58.993Z,20.10
2018-05-13T00:01:30.653Z,20.02
2018-05-13T00:02:02.342Z,20.25
2018-05-13T00:02:34.001Z,19.05
2018-05-13T00:03:05.640Z,20.25
2018-05-13T00:03:37.278Z,21.27
2018-05-13T00:04:08.927Z,20.35
2018-05-13T00:04:40.603Z,19.17
2018-05-13T00:05:12.335Z,20.67
2018-05-13T00:05:43.948Z,20.98
2018-05-13T00:06:15.604Z,19.40
2018-05-13T00:06:47.244Z,20.30
2018-05-13T00:07:18.899Z,20.85
2018-05-13T00:07:50.555Z,21.00
2018-05-13T00:08:22.200Z,21.25
2018-05-13T00:08:53.844Z,21.35
2018-05-13T00:09:25.503Z,20.10
2018-05-13T00:09:57.182Z,21.33
2018-05-13T00:10:28.850Z,20.23
2018-05-13T00:11:00.502Z,22.08
2018-05-13T00:11:32.156Z,20.75
2018-05-13T00:12:03.825Z,20.27
2018-05-13T00:12:35.485Z,20.45
2018-05-13T00:13:07.102Z,21.50
2018-05-13T00:13:38.752Z,20.50
2018-05-13T00:14:10.406Z,20.98
2018-05-13T00:14:42.044Z,21.30
2018-05-13T00:15:13.692Z,21.55
2018-05-13T00:15:45.328Z,20.65
2018-05-13T00:16:16.960Z,20.33
2018-05-13T00:16:48.596Z,21.20
2018-05-13T00:17:20.242Z,21.35
2018-05-13T00:17:51.888Z,20.42
2018-05-13T00:18:23.532Z,22.67
2018-05-13T00:18:55.157Z,21.90
2018-05-13T00:19:26.820Z,22.98
2018-05-13T00:19:58.471Z,21.62
2018-05-13T00:20:30.093Z,22.13
2018-05-13T00:21:01.723Z,20.65
2018-05-13T00:21:33.351Z,21.55
2018-05-13T00:22:05.005Z,22.42
2018-05-13T00:22:36.636Z,21.80
2018-05-13T00:23:08.276Z,21.67
2018-05-13T00:23:39.913Z,21.37
2018-05-13T00:24:11.578Z,21.83
2018-05-13T00:24:43.202Z,21.62
2018-05-13T00:25:14.860Z,22.10
2018-05-13T00:25:46.502Z,22.48
2018-05-13T00:26:18.136Z,22.15
2018-05-13T00:26:49.756Z,21.30
2018-05-13T00:27:21.415Z,22.02
2018-05-13T00:27:53.070Z,22.35
2018-05-13T00:28:24.722Z,21.87
2018-05-13T00:28:56.374Z,23.58
2018-05-13T00:29:27.999Z,22.40
2018-05-13T00:29:59.644Z,22.08
2018-05-13T00:30:31.312Z,22.40
2018-05-13T00:31:02.986Z,21.60
2018-05-13T00:31:34.635Z,22.00
2018-05-13T00:32:06.278Z,22.70
2018-05-13T00:32:37.938Z,22.47
2018-05-13T00:33:09.576Z,22.95
2018-05-13T00:33:41.240Z,22.25
2018-05-13T00:34:12.888Z,22.90
2018-05-13T00:34:44.524Z,23.25
2018-05-13T00:35:16.171Z,22.30
2018-05-13T00:35:47.808Z,22.73
2018-05-13T00:36:19.437Z,23.38
2018-05-13T00:36:51.056Z,21.70
2018-05-13T00:37:22.684Z,24.30
2018-05-13T00:37:54.336Z,24.00
2018-05-13T00:38:25.986Z,23.10
2018-05-13T00:38:57.616Z,23.95
2018-05-13T00:39:29.242Z,22.62
2018-05-13T00:40:00.882Z,24.23
2018-05-13T00:40:32.521Z,23.35
2018-05-13T00:41:04.158Z,23.23
2018-05-13T00:41:35.821Z,23.10
2018-05-13T00:42:07.464Z,22.95
2018-05-13T00:42:39.101Z,23.20
2018-05-13T00:43:10.730Z,24.30
2018-05-13T00:43:42.385Z,24.08
2018-05-13T00:44:14.010Z,23.38
2018-05-13T00:44:45.624Z,23.90
2018-05-13T00:45:17.290Z,23.67
2018-05-13T00:45:48.948Z,24.40
2018-05-13T00:46:20.600Z,23.83
2018-05-13T00:46:52.264Z,23.20
2018-05-13T00:47:23.921Z,23.98
2018-05-13T00:47:55.584Z,24.10
2018-05-13T00:48:27.204Z,23.87
2018-05-13T00:48:58.841Z,24.35
2018-05-13T00:49:30.486Z,23.05
2018-05-13T00:50:02.152Z,24.55
2018-05-13T00:50:33.811Z,24.50
2018-05-13T00:51:05.461Z,23.90
2018-05-13T00:51:37.099Z,24.80
2018-05-13T00:52:08.734Z,24.40
2018-05-13T00:52:40.364Z,24.15
2018-05-13T00:53:12.014Z,24.27
2018-05-13T00:53:43.659Z,23.75
2018-05-13T00:54:33.700Z,24.27
2018-05-13T00:55:05.300Z,24.85
2018-05-13T00:55:36.944Z,23.10
2018-05-13T00:56:08.585Z,23.92
2018-05-13T00:56:40.219Z,24.77
2018-05-13T00:57:11.876Z,25.67
2018-05-13T00:57:43.500Z,24.35
2018-05-13T00:58:15.132Z,25.58
2018-05-13T00:58:46.773Z,24.33
2018-05-13T00:59:18.399Z,24.30
2018-05-13T00:59:50.082Z,24.17
2018-05-13T01:00:21.723Z,25.58
2018-05-13T01:00:53.380Z,23.75
2018-05-13T01:01:25.006Z,24.73
2018-05-13T01:01:56.635Z,23.95
2018-05-13T01:02:28.292Z,23.80
2018-05-13T01:02:59.932Z,23.52
2018-05-13T01:03:31.570Z,25.40
2018-05-13T01:04:03.239Z,24.10
2018-05-13T01:04:34.891Z,25.08
2018-05-13T01:05:06.585Z,24.30
2018-05-13T01:05:38.244Z,25.42
2018-05-13T01:06:09.901Z,25.45
2018-05-13T01:06:41.585Z,24.83
2018-05-13T01:07:13.264Z,25.58
2018-05-13T01:07:44.926Z,23.92
2018-05-13T01:08:16.540Z,25.60
2018-05-13T01:08:48.172Z,24.87
2018-05-13T01:09:19.815Z,25.12
2018-05-13T01:09:51.458Z,26.02
2018-05-13T01:10:23.124Z,25.37
2018-05-13T01:10:54.771Z,25.80
2018-05-13T01:11:26.390Z,25.85
2018-05-13T01:11:58.040Z,25.37
2018-05-13T01:12:29.684Z,25.83
2018-05-13T01:13:01.330Z,26.92
2018-05-13T01:13:32.973Z,25.42
2018-05-13T01:14:04.614Z,24.80
2018-05-13T01:14:36.242Z,25.10
2018-05-13T01:15:07.874Z,25.67
2018-05-13T01:15:39.528Z,25.62
2018-05-13T01:16:11.168Z,25.58
2018-05-13T01:16:42.817Z,26.42
2018-05-13T01:17:14.449Z,25.60
2018-05-13T01:17:46.102Z,25.33
2018-05-13T01:18:17.752Z,26.05
2018-05-13T01:18:49.390Z,25.75
2018-05-13T01:19:21.036Z,25.40
2018-05-13T01:19:52.663Z,25.95
2018-05-13T01:20:24.370Z,26.70
2018-05-13T01:20:56.020Z,25.25
2018-05-13T01:21:27.680Z,25.52
2018-05-13T01:21:59.335Z,25.17
2018-05-13T01:22:30.975Z,25.55
2018-05-13T01:23:02.637Z,26.12
2018-05-13T01:23:34.279Z,25.88
2018-05-13T01:24:20.835Z,26.45
2018-05-13T01:24:52.488Z,25.88
2018-05-13T01:25:24.124Z,26.40
2018-05-13T01:25:55.788Z,25.60
2018-05-13T01:26:27.456Z,25.88
2018-05-13T01:26:59.079Z,26.50
2018-05-13T01:27:30.721Z,26.92
2018-05-13T01:28:02.366Z,26.30
2018-05-13T01:28:34.004Z,26.35
2018-05-13T01:29:05.628Z,26.52
2018-05-13T01:29:37.250Z,25.70
2018-05-13T01:30:08.889Z,26.08
2018-05-13T01:30:40.542Z,27.67
2018-05-13T01:31:12.192Z,27.05
2018-05-13T01:31:43.842Z,25.70
2018-05-13T01:32:15.474Z,26.87
2018-05-13T01:32:47.108Z,25.90
2018-05-13T01:33:18.756Z,27.23
2018-05-13T01:33:50.414Z,25.80
2018-05-13T01:34:22.066Z,26.77
2018-05-13T01:34:53.688Z,27.02
2018-05-13T01:35:25.316Z,26.85
2018-05-13T01:35:56.985Z,27.27
2018-05-13T01:36:28.627Z,26.90
2018-05-13T01:37:00.256Z,26.92
2018-05-13T01:37:31.879Z,28.60
2018-05-13T01:38:03.526Z,26.52
2018-05-13T01:38:35.160Z,26.35
2018-05-13T01:39:06.832Z,26.15
2018-05-13T01:39:38.450Z,26.87
2018-05-13T01:40:10.091Z,26.92
2018-05-13T01:40:41.719Z,26.52
2018-05-13T01:41:13.365Z,27.85
2018-05-13T01:41:45.019Z,26.98
2018-05-13T01:42:16.673Z,25.98
2018-05-13T01:42:48.296Z,25.83
2018-05-13T01:43:19.942Z,28.15
2018-05-13T01:43:51.576Z,26.75
2018-05-13T01:44:23.256Z,27.45
2018-05-13T01:44:54.928Z,27.70
2018-05-13T01:45:26.578Z,29.10
2018-05-13T01:45:58.226Z,26.75
2018-05-13T01:46:29.858Z,27.42
2018-05-13T01:47:01.492Z,27.27
2018-05-13T01:47:33.139Z,26.73
2018-05-13T01:48:04.784Z,27.30
2018-05-13T01:48:36.426Z,28.23
2018-05-13T01:49:08.100Z,27.50
2018-05-13T01:49:39.768Z,28.15
2018-05-13T01:50:11.424Z,27.85
2018-05-13T01:50:43.056Z,28.48
2018-05-13T01:51:14.708Z,28.15
2018-05-13T01:51:46.381Z,28.95
2018-05-13T01:52:18.064Z,28.33
2018-05-13T01:52:49.679Z,28.95
2018-05-13T01:53:21.338Z,28.48
2018-05-13T01:53:52.983Z,27.62
2018-05-13T01:54:24.684Z,27.45
2018-05-13T01:54:56.339Z,26.77
2018-05-13T01:55:27.976Z,27.67
2018-05-13T01:55:59.606Z,27.98
2018-05-13T01:56:31.216Z,28.67
2018-05-13T01:57:02.889Z,28.55
2018-05-13T01:57:34.540Z,26.92
2018-05-13T01:58:06.183Z,27.67
2018-05-13T01:58:37.828Z,28.95
2018-05-13T01:59:09.460Z,28.40
2018-05-13T01:59:41.094Z,29.05
2018-05-13T02:00:12.752Z,27.48
2018-05-13T02:00:44.396Z,28.40
2018-05-13T02:01:16.049Z,28.05
2018-05-13T02:01:47.682Z,28.23
2018-05-13T02:02:19.350Z,29.55
2018-05-13T02:02:51.000Z,28.40
2018-05-13T02:03:22.659Z,29.08
2018-05-13T02:03:54.300Z,27.50
2018-05-13T02:04:25.936Z,27.93
2018-05-13T02:04:57.596Z,28.75
2018-05-13T02:05:29.264Z,29.17
2018-05-13T02:06:00.936Z,28.35
2018-05-13T02:06:32.588Z,28.92
2018-05-13T02:07:04.252Z,29.67
2018-05-13T02:07:35.902Z,29.35
2018-05-13T02:08:07.575Z,27.92
2018-05-13T02:08:39.216Z,27.42
2018-05-13T02:09:10.848Z,28.50
2018-05-13T02:09:42.496Z,28.90
2018-05-13T02:10:14.148Z,27.77
2018-05-13T02:10:45.796Z,29.50
2018-05-13T02:11:17.424Z,29.23
2018-05-13T02:11:49.068Z,28.75
2018-05-13T02:12:20.698Z,29.52
2018-05-13T02:12:52.348Z,29.15
2018-05-13T02:13:24.008Z,30.02
2018-05-13T02:13:55.663Z,30.27
2018-05-13T02:14:27.300Z,29.87
2018-05-13T02:14:58.969Z,30.23
2018-05-13T02:15:30.631Z,29.92
2018-05-13T02:16:02.304Z,29.40
2018-05-13T02:16:33.932Z,29.08
2018-05-13T02:17:05.600Z,29.87
2018-05-13T02:17:37.231Z,28.70
2018-05-13T02:18:08.876Z,29.87
2018-05-13T02:18:40.508Z,31.37
2018-05-13T02:19:12.152Z,30.33
2018-05-13T02:19:43.804Z,29.33
2018-05-13T02:20:15.438Z,30.52
2018-05-13T02:20:47.160Z,30.75
2018-05-13T02:21:18.746Z,30.50
2018-05-13T02:21:50.416Z,29.23
2018-05-13T02:22:22.064Z,31.25
2018-05-13T02:22:53.718Z,29.45
2018-05-13T02:23:25.342Z,30.30
2018-05-13T02:23:56.988Z,30.37
2018-05-13T02:24:28.612Z,31.05
2018-05-13T02:25:00.248Z,29.55
2018-05-13T02:25:31.886Z,31.73
2018-05-13T02:26:03.532Z,30.33
2018-05-13T02:26:35.177Z,29.98
2018-05-13T02:27:06.810Z,31.67
2018-05-13T02:27:38.450Z,29.85
2018-05-13T02:28:10.076Z,29.92
2018-05-13T02:28:41.700Z,30.42
2018-05-13T02:29:13.380Z,31.95
2018-05-13T02:29:45.025Z,31.48
2018-05-13T02:30:16.692Z,30.70
2018-05-13T02:30:48.360Z,31.12
2018-05-13T02:31:20.008Z,31.58
2018-05-13T02:31:51.644Z,30.23
2018-05-13T02:32:23.268Z,31.05
2018-05-13T02:32:54.892Z,30.58
2018-05-13T02:33:26.553Z,30.50
2018-05-13T02:33:58.188Z,31.45
2018-05-13T02:34:29.807Z,31.27
2018-05-13T02:35:01.456Z,31.15
2018-05-13T02:35:33.116Z,30.62
2018-05-13T02:36:04.751Z,29.58
2018-05-13T02:36:36.432Z,30.25
2018-05-13T02:37:08.067Z,31.15
2018-05-13T02:37:39.726Z,30.25
2018-05-13T02:38:11.368Z,32.42
2018-05-13T02:38:43.028Z,31.73
2018-05-13T02:39:14.696Z,32.60
2018-05-13T02:39:46.374Z,33.05
2018-05-13T02:40:18.035Z,33.00
2018-05-13T02:40:49.700Z,32.67
2018-05-13T02:41:21.351Z,32.33
2018-05-13T02:41:53.016Z,32.03
2018-05-13T02:42:24.661Z,32.97
2018-05-13T02:42:56.312Z,31.27
2018-05-13T02:43:27.950Z,31.25
2018-05-13T02:43:59.611Z,31.73
2018-05-13T02:44:31.255Z,32.53
2018-05-13T02:45:03.001Z,32.63
2018-05-13T02:45:34.571Z,32.17
2018-05-13T02:46:06.268Z,31.85
2018-05-13T02:46:37.930Z,31.02
2018-05-13T02:47:09.586Z,32.38
2018-05-13T02:47:41.207Z,32.47
2018-05-13T02:48:12.858Z,30.92
2018-05-13T02:48:44.492Z,31.90
2018-05-13T02:49:16.134Z,33.17
2018-05-13T02:49:47.770Z,33.28
2018-05-13T02:50:19.419Z,33.33
2018-05-13T02:50:51.054Z,31.35
2018-05-13T02:51:22.726Z,31.95
2018-05-13T02:51:54.364Z,33.20
2018-05-13T02:52:26.026Z,32.65
2018-05-13T02:52:57.666Z,31.87
2018-05-13T02:53:29.321Z,32.70
2018-05-13T02:54:00.985Z,33.25
2018-05-13T02:54:32.635Z,33.30
2018-05-13T02:55:04.314Z,32.65
2018-05-13T02:55:35.966Z,33.78
2018-05-13T02:56:07.628Z,33.53
2018-05-13T02:56:39.283Z,32.88
2018-05-13T02:57:10.941Z,34.88
2018-05-13T02:57:42.604Z,32.97
2018-05-13T02:58:14.234Z,35.13
2018-05-13T02:58:45.867Z,33.67
2018-05-13T02:59:17.526Z,32.70
2018-05-13T02:59:49.153Z,33.28
2018-05-13T03:00:20.795Z,33.63
2018-05-13T03:00:52.428Z,33.80
2018-05-13T03:01:24.065Z,34.72
2018-05-13T03:01:55.728Z,33.38
2018-05-13T03:02:27.380Z,33.00
2018-05-13T03:02:59.020Z,32.80
2018-05-13T03:03:30.676Z,33.25
2018-05-13T03:04:02.309Z,34.05
2018-05-13T03:04:33.955Z,32.55
2018-05-13T03:05:05.613Z,33.67
2018-05-13T03:05:37.269Z,33.28
2018-05-13T03:06:08.947Z,32.58
2018-05-13T03:06:40.632Z,34.00
2018-05-13T03:07:12.291Z,35.80
2018-05-13T03:07:43.931Z,36.00
2018-05-13T03:08:15.563Z,35.95
2018-05-13T03:08:47.228Z,34.92
2018-05-13T03:09:18.896Z,34.50
2018-05-13T03:09:50.541Z,33.45
2018-05-13T03:10:22.214Z,35.20
2018-05-13T03:10:53.837Z,35.00
2018-05-13T03:11:25.450Z,35.28
2018-05-13T03:11:57.072Z,33.47
2018-05-13T03:12:28.713Z,33.58
2018-05-13T03:13:00.373Z,33.70
2018-05-13T03:13:31.998Z,33.80
2018-05-13T03:14:03.638Z,34.25
2018-05-13T03:14:35.298Z,35.35
2018-05-13T03:15:06.935Z,33.47
2018-05-13T03:15:38.565Z,35.55
2018-05-13T03:16:10.196Z,35.25
2018-05-13T03:16:41.860Z,35.47
2018-05-13T03:17:13.487Z,34.53
2018-05-13T03:17:45.136Z,34.80
2018-05-13T03:18:16.784Z,35.38
2018-05-13T03:18:48.418Z,35.80
2018-05-13T03:19:20.061Z,35.17
2018-05-13T03:19:51.700Z,34.15
2018-05-13T03:20:23.358Z,34.70
2018-05-13T03:20:55.026Z,35.75
2018-05-13T03:21:26.690Z,34.42
2018-05-13T03:21:58.328Z,35.13
2018-05-13T03:22:29.961Z,35.63
2018-05-13T03:23:01.589Z,34.42
2018-05-13T03:23:33.227Z,35.42
2018-05-13T03:24:04.876Z,36.15
2018-05-13T03:24:36.554Z,37.83
2018-05-13T03:25:08.197Z,35.53
2018-05-13T03:25:39.821Z,35.47
2018-05-13T03:26:11.482Z,35.03
2018-05-13T03:26:43.123Z,37.47
2018-05-13T03:27:14.756Z,36.58
2018-05-13T03:27:46.400Z,35.95
2018-05-13T03:28:18.030Z,35.33
2018-05-13T03:28:49.658Z,37.38
2018-05-13T03:29:21.293Z,36.42
2018-05-13T03:29:52.944Z,35.95
2018-05-13T03:30:24.621Z,36.92
2018-05-13T03:30:56.256Z,37.42
2018-05-13T03:31:27.884Z,36.42
2018-05-13T03:31:59.536Z,36.60
2018-05-13T03:32:31.168Z,35.85
2018-05-13T03:33:02.814Z,36.55
2018-05-13T03:33:34.459Z,35.67
2018-05-13T03:34:06.118Z,35.80
2018-05-13T03:34:37.747Z,34.33
2018-05-13T03:35:09.405Z,35.70
2018-05-13T03:35:41.039Z,35.65
2018-05-13T03:36:12.682Z,34.47
2018-05-13T03:36:44.338Z,35.67
2018-05-13T03:37:15.980Z,35.88
2018-05-13T03:37:47.598Z,36.25
2018-05-13T03:38:19.264Z,36.15
2018-05-13T03:38:50.930Z,36.60
2018-05-13T03:39:22.583Z,36.92
2018-05-13T03:39:54.232Z,36.10
2018-05-13T03:40:25.908Z,36.33
2018-05-13T03:40:57.576Z,37.28
2018-05-13T03:41:29.216Z,36.03
2018-05-13T03:42:00.850Z,35.80
2018-05-13T03:42:32.491Z,36.75
2018-05-13T03:43:04.152Z,35.33
2018-05-13T03:43:35.786Z,36.75
2018-05-13T03:44:07.486Z,37.50
2018-05-13T03:44:39.125Z,35.65
2018-05-13T03:45:10.753Z,36.45
2018-05-13T03:45:42.418Z,36.78
2018-05-13T03:46:14.053Z,35.83
2018-05-13T03:46:45.699Z,36.25
2018-05-13T03:47:17.332Z,36.42
2018-05-13T03:47:48.964Z,35.60
2018-05-13T03:48:20.680Z,35.92
2018-05-13T03:48:52.328Z,36.60
2018-05-13T03:49:23.976Z,36.58
2018-05-13T03:49:55.590Z,36.08
2018-05-13T03:50:27.218Z,36.05
2018-05-13T03:50:58.850Z,36.25
2018-05-13T03:51:30.466Z,35.47
2018-05-13T03:52:02.100Z,34.28
2018-05-13T03:52:33.737Z,35.72
2018-05-13T03:53:05.383Z,34.92
2018-05-13T03:53:37.020Z,35.08
2018-05-13T03:54:08.658Z,37.70
2018-05-13T03:54:40.300Z,35.83
2018-05-13T03:55:11.940Z,34.38
2018-05-13T03:55:43.598Z,36.13
2018-05-13T03:56:15.246Z,36.58
2018-05-13T03:56:46.860Z,36.85
2018-05-13T03:57:18.487Z,36.95
2018-05-13T03:57:50.122Z,36.70
2018-05-13T03:58:21.788Z,35.95
2018-05-13T03:58:53.416Z,35.53
2018-05-13T03:59:25.042Z,36.83
2018-05-13T03:59:56.702Z,35.72
2018-05-13T04:00:28.339Z,36.20
2018-05-13T04:00:59.988Z,36.30
2018-05-13T04:01:31.634Z,35.45
2018-05-13T04:02:03.300Z,34.33
2018-05-13T04:02:34.916Z,37.15
2018-05-13T04:03:06.548Z,35.78
2018-05-13T04:03:38.184Z,35.42
2018-05-13T04:04:09.810Z,35.55
2018-05-13T04:04:41.446Z,34.45
2018-05-13T04:05:13.082Z,37.13
2018-05-13T04:05:44.728Z,35.75
2018-05-13T04:06:16.366Z,34.67
2018-05-13T04:06:48.028Z,34.45
2018-05-13T04:07:19.702Z,35.20
2018-05-13T04:09:37.658Z,34.78
2018-05-13T04:10:27.692Z,35.38
2018-05-13T04:11:17.868Z,35.85
2018-05-13T04:12:08.150Z,35.42
2018-05-13T04:13:09.746Z,36.67
2018-05-13T04:13:59.977Z,36.42
2018-05-13T04:14:50.169Z,33.80
2018-05-13T04:15:25.587Z,34.95
2018-05-13T04:15:57.236Z,36.00
2018-05-13T04:16:28.870Z,36.25
2018-05-13T04:17:00.510Z,35.03
2018-05-13T04:17:32.160Z,35.90
2018-05-13T04:18:03.828Z,36.78
2018-05-13T04:18:35.464Z,38.60
2018-05-13T04:19:07.106Z,37.10
2018-05-13T04:19:38.736Z,36.45
2018-05-13T04:20:10.377Z,36.97
2018-05-13T04:20:42.020Z,35.17
2018-05-13T04:21:13.667Z,36.53
2018-05-13T04:21:45.314Z,34.97
2018-05-13T04:22:16.951Z,34.72
2018-05-13T04:22:48.619Z,33.95
2018-05-13T04:23:20.265Z,34.72
2018-05-13T04:23:51.898Z,35.58
2018-05-13T04:24:23.552Z,34.97
2018-05-13T04:24:55.183Z,34.50
2018-05-13T04:25:26.818Z,35.40
2018-05-13T04:25:58.453Z,35.03
2018-05-13T04:26:30.116Z,35.20
2018-05-13T04:27:01.750Z,33.17
2018-05-13T04:27:33.373Z,36.10
2018-05-13T04:28:05.004Z,34.90
2018-05-13T04:28:36.622Z,33.45
2018-05-13T04:29:08.271Z,35.05
2018-05-13T04:29:39.902Z,34.53
2018-05-13T04:30:11.547Z,33.40
2018-05-13T04:30:43.196Z,35.03
2018-05-13T04:31:14.845Z,34.97
2018-05-13T04:31:46.500Z,34.97
2018-05-13T04:32:18.140Z,35.22
2018-05-13T04:32:49.759Z,33.83
2018-05-13T04:33:21.408Z,33.78
2018-05-13T04:33:53.032Z,35.15
2018-05-13T04:34:24.666Z,34.97
2018-05-13T04:34:56.310Z,34.72
2018-05-13T04:35:27.990Z,34.28
2018-05-13T04:35:59.632Z,33.33
2018-05-13T04:36:31.283Z,34.67
2018-05-13T04:37:02.926Z,36.15
2018-05-13T04:37:34.570Z,34.85
2018-05-13T04:38:06.212Z,34.47
2018-05-13T04:38:37.868Z,34.53
2018-05-13T04:39:09.531Z,35.20
2018-05-13T04:39:41.154Z,33.38
2018-05-13T04:40:12.794Z,34.95
2018-05-13T04:40:44.461Z,34.03
2018-05-13T04:41:16.119Z,35.53
2018-05-13T04:41:47.776Z,34.38
2018-05-13T04:42:19.434Z,34.55
2018-05-13T04:42:51.066Z,34.45
2018-05-13T04:43:22.704Z,34.33
2018-05-13T04:43:54.333Z,36.42
2018-05-13T04:44:25.973Z,35.80
2018-05-13T04:44:57.615Z,34.83
2018-05-13T04:45:29.239Z,36.58
2018-05-13T04:46:00.916Z,34.70
2018-05-13T04:46:32.532Z,34.40
2018-05-13T04:47:04.164Z,34.92
2018-05-13T04:47:35.792Z,35.65
2018-05-13T04:48:07.428Z,34.53
2018-05-13T04:48:39.078Z,35.05
2018-05-13T04:49:10.703Z,35.58
2018-05-13T04:49:42.350Z,35.35
2018-05-13T04:50:13.981Z,36.15
2018-05-13T04:50:45.631Z,34.28
2018-05-13T04:51:17.282Z,34.65
2018-05-13T04:51:48.911Z,36.08
2018-05-13T04:52:20.569Z,35.40
2018-05-13T04:52:52.290Z,34.38
2018-05-13T04:53:23.956Z,34.85
2018-05-13T04:53:55.600Z,36.85
2018-05-13T04:54:27.245Z,36.33
2018-05-13T04:54:58.935Z,35.88
2018-05-13T04:55:30.600Z,36.20
2018-05-13T04:56:02.223Z,35.53
2018-05-13T04:56:33.875Z,35.50
2018-05-13T04:57:05.505Z,35.97
2018-05-13T04:57:37.163Z,36.00
2018-05-13T04:58:08.798Z,36.38
2018-05-13T04:58:40.447Z,36.67
2018-05-13T04:59:12.091Z,36.42
2018-05-13T04:59:43.736Z,35.10
2018-05-13T05:00:15.391Z,35.33
2018-05-13T05:00:47.035Z,36.05
2018-05-13T05:01:18.660Z,35.78
2018-05-13T05:01:50.301Z,35.08
2018-05-13T05:02:21.928Z,34.88
2018-05-13T05:02:53.553Z,36.25
2018-05-13T05:03:25.195Z,34.55
2018-05-13T05:03:56.833Z,35.47
2018-05-13T05:04:28.456Z,34.95
2018-05-13T05:05:00.087Z,33.90
2018-05-13T05:05:31.703Z,33.40
2018-05-13T05:06:03.348Z,34.25
2018-05-13T05:06:34.975Z,36.33
2018-05-13T05:07:06.628Z,35.80
2018-05-13T05:07:38.265Z,34.70
2018-05-13T05:08:09.903Z,33.97
2018-05-13T05:08:41.531Z,34.85
2018-05-13T05:09:13.162Z,34.35
2018-05-13T05:09:44.799Z,35.30
2018-05-13T05:10:16.435Z,34.60
2018-05-13T05:10:48.050Z,34.05
2018-05-13T05:11:19.677Z,34.67
2018-05-13T05:11:51.293Z,34.50
2018-05-13T05:12:22.931Z,35.47
2018-05-13T05:12:54.549Z,34.25
2018-05-13T05:13:26.181Z,35.95
2018-05-13T05:13:57.817Z,33.78
2018-05-13T05:14:29.436Z,34.45
2018-05-13T05:15:01.072Z,34.15
2018-05-13T05:15:32.741Z,33.38
2018-05-13T05:16:04.405Z,33.53
2018-05-13T05:16:36.039Z,34.30
2018-05-13T05:17:07.667Z,33.25
2018-05-13T05:17:39.307Z,33.92
2018-05-13T05:18:10.932Z,32.92
2018-05-13T05:18:42.575Z,32.85
2018-05-13T05:19:14.211Z,33.58
2018-05-13T05:19:45.840Z,33.70
2018-05-13T05:20:17.483Z,32.42
2018-05-13T05:20:49.117Z,33.60
2018-05-13T05:21:20.721Z,33.22
2018-05-13T05:21:52.345Z,32.72
2018-05-13T05:22:23.991Z,32.60
2018-05-13T05:22:55.615Z,34.20
2018-05-13T05:23:27.239Z,33.03
2018-05-13T05:23:58.883Z,32.42
2018-05-13T05:24:30.516Z,33.47
2018-05-13T05:25:02.175Z,33.38
2018-05-13T05:25:33.823Z,32.67
2018-05-13T05:26:05.480Z,32.95
2018-05-13T05:26:37.131Z,33.83
2018-05-13T05:27:08.755Z,33.22
2018-05-13T05:27:40.399Z,32.73
2018-05-13T05:28:12.061Z,31.83
2018-05-13T05:28:43.683Z,32.22
2018-05-13T05:29:15.332Z,32.72
2018-05-13T05:29:46.955Z,32.53
2018-05-13T05:30:18.561Z,32.10
2018-05-13T05:30:50.205Z,32.40
2018-05-13T05:31:21.845Z,32.97
2018-05-13T05:31:53.463Z,31.45
2018-05-13T05:32:25.087Z,32.83
2018-05-13T05:32:56.713Z,31.67
2018-05-13T05:33:28.343Z,32.13
2018-05-13T05:33:59.993Z,32.47
2018-05-13T05:34:31.637Z,31.62
2018-05-13T05:35:03.259Z,32.25
2018-05-13T05:35:34.891Z,31.67
2018-05-13T05:36:06.568Z,32.63
2018-05-13T05:36:38.197Z,31.42
2018-05-13T05:37:09.831Z,32.25
2018-05-13T05:37:41.488Z,30.65
2018-05-13T05:38:13.103Z,30.48
2018-05-13T05:38:44.733Z,30.40
2018-05-13T05:39:16.352Z,31.25
2018-05-13T05:39:47.987Z,29.98
2018-05-13T05:40:19.623Z,31.48
2018-05-13T05:40:51.250Z,30.75
2018-05-13T05:41:22.896Z,30.12
2018-05-13T05:41:54.527Z,31.17
2018-05-13T05:42:26.147Z,29.98
2018-05-13T05:42:57.763Z,30.98
2018-05-13T05:43:29.383Z,30.27
2018-05-13T05:44:01.035Z,29.25
2018-05-13T05:44:32.685Z,31.50
2018-05-13T05:45:04.327Z,31.05
2018-05-13T05:45:35.983Z,29.17
2018-05-13T05:46:07.627Z,30.83
2018-05-13T05:46:39.303Z,29.42
2018-05-13T05:47:10.937Z,30.88
2018-05-13T05:47:42.582Z,29.20
2018-05-13T05:48:14.213Z,31.55
2018-05-13T05:48:45.831Z,29.42
2018-05-13T05:49:17.427Z,30.25
2018-05-13T05:49:49.052Z,29.77
2018-05-13T05:50:20.686Z,30.17
2018-05-13T05:50:52.339Z,30.20
2018-05-13T05:51:24.009Z,30.00
2018-05-13T05:51:55.646Z,30.92
2018-05-13T05:52:27.272Z,29.05
2018-05-13T05:52:58.919Z,30.27
2018-05-13T05:53:30.559Z,28.73
2018-05-13T05:54:02.213Z,29.65
2018-05-13T05:54:33.848Z,30.05
2018-05-13T05:55:05.497Z,29.60
2018-05-13T05:55:37.115Z,28.83
2018-05-13T05:56:08.737Z,29.30
2018-05-13T05:56:40.371Z,28.70
2018-05-13T05:57:12.006Z,28.23
2018-05-13T05:57:43.649Z,28.85
2018-05-13T05:58:15.283Z,28.58
2018-05-13T05:58:46.939Z,26.90
2018-05-13T05:59:18.581Z,27.67
2018-05-13T05:59:50.219Z,27.20
2018-05-13T06:00:21.841Z,27.80
2018-05-13T06:00:53.475Z,26.02
2018-05-13T06:01:25.121Z,27.00
2018-05-13T06:01:56.751Z,27.30
2018-05-13T06:02:28.363Z,27.35
2018-05-13T06:02:59.997Z,27.08
2018-05-13T06:03:31.636Z,26.37
2018-05-13T06:04:03.297Z,26.35
2018-05-13T06:04:34.927Z,26.20
2018-05-13T06:05:06.567Z,26.20
2018-05-13T06:05:38.191Z,27.00
2018-05-13T06:06:09.840Z,26.55
2018-05-13T06:06:41.496Z,27.30
2018-05-13T06:07:13.125Z,26.75
2018-05-13T06:07:44.769Z,26.17
2018-05-13T06:08:16.409Z,27.92
2018-05-13T06:08:48.059Z,27.37
2018-05-13T06:09:19.671Z,28.35
2018-05-13T06:09:51.346Z,28.80
2018-05-13T06:10:22.982Z,27.30
2018-05-13T06:10:54.617Z,27.83
2018-05-13T06:11:26.264Z,27.77
2018-05-13T06:11:57.904Z,27.45
2018-05-13T06:12:29.531Z,28.70
2018-05-13T06:13:01.185Z,28.70
2018-05-13T06:13:32.827Z,28.33
2018-05-13T06:14:04.475Z,27.80
2018-05-13T06:14:36.093Z,28.77
2018-05-13T06:15:07.724Z,28.23
2018-05-13T06:15:39.362Z,28.85
2018-05-13T06:16:11.022Z,28.30
2018-05-13T06:16:42.675Z,27.48
2018-05-13T06:17:14.279Z,28.65
2018-05-13T06:17:45.907Z,28.48
2018-05-13T06:18:17.577Z,27.92
2018-05-13T06:18:49.214Z,28.02
2018-05-13T06:19:20.862Z,28.95
2018-05-13T06:19:52.482Z,28.12
2018-05-13T06:21:27.013Z,28.55
2018-05-13T06:21:58.630Z,28.52
2018-05-13T06:22:30.257Z,27.95
2018-05-13T06:23:01.913Z,27.35
2018-05-13T06:23:33.545Z,28.38
2018-05-13T06:24:05.161Z,27.77
2018-05-13T06:24:36.801Z,29.40
2018-05-13T06:25:08.541Z,27.40
2018-05-13T06:25:40.117Z,27.55
2018-05-13T06:26:11.750Z,26.73
2018-05-13T06:26:43.389Z,27.10
2018-05-13T06:27:15.133Z,27.65
2018-05-13T06:27:46.779Z,27.50
2018-05-13T06:28:18.417Z,27.48
2018-05-13T06:28:50.045Z,27.95
2018-05-13T06:29:21.718Z,27.92
2018-05-13T06:29:53.365Z,26.77
2018-05-13T06:30:25.014Z,27.15
2018-05-13T06:31:11.670Z,26.50
2018-05-13T06:31:43.305Z,26.62
2018-05-13T06:32:14.942Z,27.75
2018-05-13T06:32:46.547Z,26.60
2018-05-13T06:33:18.174Z,27.13
2018-05-13T06:33:49.804Z,27.17
2018-05-13T06:34:21.443Z,26.60
2018-05-13T06:34:53.060Z,27.35
2018-05-13T06:35:24.665Z,27.77
2018-05-13T06:35:56.286Z,27.10
2018-05-13T06:36:27.927Z,28.25
2018-05-13T06:36:59.556Z,25.55
2018-05-13T06:37:31.199Z,27.83
2018-05-13T06:38:02.851Z,26.62
2018-05-13T06:38:34.497Z,27.58
2018-05-13T06:39:06.168Z,25.88
2018-05-13T06:39:37.856Z,26.45
2018-05-13T06:40:09.427Z,27.02
2018-05-13T06:40:41.071Z,27.27
2018-05-13T06:41:12.712Z,27.50
2018-05-13T06:41:44.367Z,26.83
2018-05-13T06:42:16.005Z,27.33
2018-05-13T06:42:47.645Z,26.48
2018-05-13T06:43:19.293Z,26.35
2018-05-13T06:43:50.925Z,26.95
2018-05-13T06:44:22.565Z,27.92
2018-05-13T06:44:54.223Z,25.60
2018-05-13T06:45:25.873Z,26.48
2018-05-13T06:45:57.515Z,26.27
2018-05-13T06:46:29.163Z,27.08
2018-05-13T06:47:00.790Z,25.30
2018-05-13T06:47:32.441Z,26.17
2018-05-13T06:48:04.091Z,28.50
2018-05-13T06:48:35.726Z,26.42
2018-05-13T06:49:07.379Z,26.45
2018-05-13T06:49:39.021Z,26.58
2018-05-13T06:50:10.651Z,27.02
2018-05-13T06:50:42.257Z,25.62
2018-05-13T06:51:13.916Z,26.48
2018-05-13T06:51:45.551Z,25.15
2018-05-13T06:52:17.178Z,26.40
2018-05-13T06:52:48.813Z,26.05
2018-05-13T06:53:20.431Z,26.17